Flight Track Log - Related Links

Times and Time Zones

All times are in EDT time to prevent confusion due to time zone crossing. See the SWA311 flight status page for this flight to view local times or setup timezone preferences in your user account.


Time Position Orientation Groundspeed Altitude Reporting Facility
EDT Latitude Longitude Course Direction KTS MPH feet Rate Location/Type
Sun 07:50:58 PM 39.1667 -76.7500 184° South 199 229 2,500  Level Potomac TRACON
Sun 07:52:37 PM 39.0875 -76.6961 152° Southeast 251 289 5,800 1,774 Climbing Washington Center
Sun 07:53:37 PM 39.0297 -76.6231 136° Southeast 275 316 7,200 2,050 Climbing Washington Center
Sun 07:54:37 PM 38.9722 -76.5447 133° Southeast 294 338 9,900 2,550 Climbing Washington Center
Sun 07:55:37 PM 38.9019 -76.4611 137° Southeast 313 360 12,300 2,100 Climbing Washington Center
Sun 07:56:00 PM 38.6670 -76.7083 184° South  Level FlightAware Approximate
Sun 07:56:37 PM 38.8142 -76.4922 195° South 285 328 14,100  Level Washington Center
Sun 07:57:37 PM 38.7383 -76.5711 219° Southwest 291 335 14,200 1,550 Climbing Washington Center
Sun 07:58:37 PM 38.6608 -76.6392 214° Southwest 326 375 17,200 3,200 Climbing Washington Center
Sun 07:59:37 PM 38.5706 -76.6936 205° Southwest 350 403 20,600 2,400 Climbing Washington Center
Sun 08:00:37 PM 38.4722 -76.7294 196° South 360 414 22,000 700 Climbing Washington Center
Sun 08:01:37 PM 38.3678 -76.7622 194° South 372 428 22,000  Level Washington Center
Sun 08:02:37 PM 38.2547 -76.8000 195° South 384 442 22,000  Level Washington Center
Sun 08:03:37 PM 38.1542 -76.8356 196° South 384 442 22,000  Level Washington Center
Sun 08:04:37 PM 38.0497 -76.8706 195° South 384 442 22,000  Level Washington Center
Sun 08:05:37 PM 37.9492 -76.9058 195° South 384 442 22,000  Level Washington Center
Sun 08:06:37 PM 37.8467 -76.9408 195° South 379 436 22,000  Level Washington Center
Sun 08:07:37 PM 37.7544 -76.9733 196° South 379 436 22,000  Level Washington Center
Sun 08:08:37 PM 37.6561 -77.0056 195° South 374 430 22,000  Level Washington Center
Sun 08:09:37 PM 37.5533 -77.0406 195° South 374 430 22,000  Level Washington Center
Sun 08:10:37 PM 37.4403 -77.0775 195° South 386 444 22,000 -150 Level Washington Center
Sun 08:11:37 PM 37.3419 -77.1122 196° South 375 432 21,700 -700 Descending Washington Center
Sun 08:12:37 PM 37.2536 -77.1678 207° Southwest 363 418 20,600 -850 Descending Washington Center
Sun 08:13:37 PM 37.1672 -77.2261 208° Southwest 357 411 20,000 -300 Descending Washington Center
Sun 08:14:37 PM 37.0872 -77.2869 211° Southwest 352 405 20,000  Level Washington Center
Sun 08:15:37 PM 37.0050 -77.3475 210° Southwest 347 399 20,000  Level Washington Center
Sun 08:16:37 PM 36.9206 -77.4106 211° Southwest 347 399 20,000  Level Washington Center
Sun 08:17:37 PM 36.8422 -77.4839 217° Southwest 352 405 20,000  Level Washington Center
Sun 08:18:37 PM 36.7658 -77.5625 220° Southwest 357 411 20,000  Level Washington Center
Sun 08:19:37 PM 36.6872 -77.6433 220° Southwest 362 417 20,000  Level Washington Center
Sun 08:20:37 PM 36.6128 -77.7217 220° Southwest 362 417 20,000 -300 Level Washington Center
Sun 08:21:37 PM 36.5383 -77.7969 219° Southwest 357 411 19,400 -1,250 Descending Washington Center
Sun 08:22:37 PM 36.4639 -77.8725 219° Southwest 357 411 17,500 -2,050 Descending Washington Center
Sun 08:23:37 PM 36.3939 -77.9428 219° Southwest 352 405 15,300 -2,148 Descending Washington Center
Sun 08:23:58 PM 36.3661 -77.9678 216° Southwest 332 382 14,600 -2,000 Descending Washington Center
Sun 08:24:37 PM 36.3236 -78.0153 222° Southwest 346 398 13,300 -2,055 Descending Washington Center
Sun 08:25:11 PM 36.2789 -78.0578 217° Southwest 328 377 12,100 -2,000 Descending Washington Center
Sun 08:25:37 PM 36.2531 -78.0878 223° Southwest 335 386 11,300 -1,770 Descending Washington Center
Sun 08:26:12 PM 36.2106 -78.1278 217° Southwest 319 367 10,300 -1,200 Descending Washington Center
Sun 08:26:37 PM 36.1936 -78.1478 224° Southwest 330 380 10,100 -900 Descending Washington Center
Sun 08:27:12 PM 36.1569 -78.1981 228° Southwest 282 325 9,400 -1,300 Descending Washington Center
Sun 08:27:37 PM 36.1436 -78.2336 245° Southwest 300 345 8,800 -1,475 Descending Washington Center
Sun 08:28:13 PM 36.1194 -78.2867 241° Southwest 274 315 7,900 -1,300 Descending Washington Center
Sun 08:28:37 PM 36.1106 -78.3097 244° Southwest 286 329 7,500 -1,343 Descending Washington Center
Sun 08:29:20 PM 36.0756 -78.3778 238° Southwest 271 312 6,400 -1,400 Descending Washington Center
Sun 08:29:37 PM 36.0711 -78.4008 257° West 274 315 6,100 -1,400 Descending Washington Center
Sun 08:30:20 PM 36.0425 -78.4564 238° Southwest 263 303 5,000 -1,200 Descending Washington Center
Sun 08:30:37 PM 36.0358 -78.4764 248° West 274 315 4,900 -98 Descending Washington Center
Sun 08:31:21 PM 36.0117 -78.5269 239° Southwest 226 260 4,900 -300 Level Washington Center
Sun 08:31:37 PM 36.0069 -78.5447 252° West 252 290 4,600 -868 Descending Washington Center
Sun 08:32:37 PM 35.9806 -78.6056 242° Southwest 225 259 3,800 -857 Descending Washington Center
Sun 08:33:22 PM 35.9583 -78.6508 239° Southwest 202 232 3,100 -900 Descending Washington Center
Sun 08:33:37 PM 35.9539 -78.6661 250° West 215 247 2,900 -787 Descending Washington Center
Sun 08:34:23 PM 35.9361 -78.7064 241° Southwest 179 206 2,300 -900 Descending Washington Center
Sun 08:35:17 PM 35.9103 -78.7386 225° Southwest 129 148 1,400 -835 Descending Washington Center
Sun 08:36:18 PM 35.8864 -78.7711 228° Southwest 124 143 700 -689 Descending Washington Center
Sun 08:38:00 PM 35.8776 -78.7875 North  Level Estimated

Login

Don't have an account? Register now (free) for customized features, flight alerts, and more!